createdAt,value
2019-05-06T00:01:34.326Z,9.40
2019-05-06T00:04:44.785Z,11.27
2019-05-06T00:07:54.898Z,8.60
2019-05-06T00:10:59.311Z,13.38
2019-05-06T00:14:03.932Z,10.13
2019-05-06T00:17:07.792Z,13.07
2019-05-06T00:20:11.487Z,13.33
2019-05-06T00:23:16.802Z,10.60
2019-05-06T00:26:31.151Z,10.03
2019-05-06T00:29:35.195Z,8.57
2019-05-06T00:32:38.746Z,9.73
2019-05-06T00:35:42.354Z,16.50
2019-05-06T00:38:47.560Z,12.73
2019-05-06T00:41:59.820Z,14.20
2019-05-06T00:45:04.566Z,15.48
2019-05-06T00:48:08.230Z,19.10
2019-05-06T00:51:13.561Z,15.15
2019-05-06T00:54:18.843Z,19.37
2019-05-06T00:57:24.087Z,16.37
2019-05-06T01:00:29.515Z,23.00
2019-05-06T01:03:34.692Z,17.95
2019-05-06T01:06:38.534Z,16.48
2019-05-06T01:09:43.825Z,16.75
2019-05-06T01:12:55.039Z,26.70
2019-05-06T01:15:58.603Z,17.92
2019-05-06T01:19:02.165Z,22.32
2019-05-06T01:22:05.726Z,19.80
2019-05-06T01:25:09.858Z,16.10
2019-05-06T01:28:13.895Z,16.30
2019-05-06T01:31:17.657Z,17.35
2019-05-06T01:34:21.376Z,19.30
2019-05-06T01:37:27.574Z,18.50
2019-05-06T01:40:35.160Z,17.27
2019-05-06T01:43:41.526Z,16.10
2019-05-06T01:46:45.076Z,17.93
2019-05-06T01:49:48.601Z,20.07
2019-05-06T01:52:54.030Z,14.57
2019-05-06T01:55:57.635Z,23.23
2019-05-06T01:59:01.163Z,14.70
2019-05-06T02:02:05.746Z,16.60
2019-05-06T02:05:09.735Z,16.57
2019-05-06T02:08:13.600Z,15.77
2019-05-06T02:11:17.100Z,17.42
2019-05-06T02:14:20.685Z,24.33
2019-05-06T02:17:24.534Z,11.30
2019-05-06T02:20:28.080Z,15.90
2019-05-06T02:23:49.928Z,18.85
2019-05-06T02:26:54.259Z,17.40
2019-05-06T02:30:05.502Z,15.10
2019-05-06T02:33:25.902Z,22.10
2019-05-06T02:36:37.008Z,16.03
2019-05-06T02:39:43.601Z,16.77
2019-05-06T02:42:45.857Z,17.23
2019-05-06T02:45:49.380Z,21.97
2019-05-06T02:48:57.363Z,20.27
2019-05-06T02:52:03.130Z,13.35
2019-05-06T02:55:07.013Z,18.93
2019-05-06T02:58:10.594Z,25.17
2019-05-06T03:01:14.416Z,14.63
2019-05-06T03:04:18.110Z,19.70
2019-05-06T03:07:23.348Z,12.60
2019-05-06T03:10:26.994Z,20.73
2019-05-06T03:13:33.638Z,22.97
2019-05-06T03:16:35.794Z,16.77
2019-05-06T03:19:45.670Z,18.47
2019-05-06T03:22:54.544Z,18.20
2019-05-06T03:25:58.304Z,17.67
2019-05-06T03:29:02.933Z,21.03
2019-05-06T03:32:07.831Z,17.97
2019-05-06T03:35:31.512Z,20.23
2019-05-06T03:38:17.027Z,22.93
2019-05-06T03:41:26.064Z,23.67
2019-05-06T03:44:25.846Z,26.13
2019-05-06T03:47:34.683Z,15.67
2019-05-06T03:50:38.534Z,20.83
2019-05-06T03:53:43.542Z,19.03
2019-05-06T03:56:47.934Z,20.33
2019-05-06T03:59:53.100Z,18.53
2019-05-06T04:02:56.721Z,21.00
2019-05-06T04:06:04.483Z,27.23
2019-05-06T04:09:07.123Z,20.07
2019-05-06T04:12:12.830Z,19.43
2019-05-06T04:15:16.274Z,28.93
2019-05-06T04:18:23.920Z,22.73
2019-05-06T04:21:32.980Z,19.23
2019-05-06T04:24:45.542Z,20.97
2019-05-06T04:27:53.475Z,18.30
2019-05-06T04:30:56.089Z,22.03
2019-05-06T04:34:12.343Z,26.60
2019-05-06T04:37:05.254Z,18.07
2019-05-06T04:40:09.164Z,17.77
2019-05-06T04:43:13.575Z,22.87
2019-05-06T04:46:17.524Z,17.00
2019-05-06T04:49:23.706Z,16.13
2019-05-06T04:52:26.882Z,16.43
2019-05-06T04:55:33.630Z,18.10
2019-05-06T04:58:37.460Z,13.10
2019-05-06T05:01:41.129Z,18.47
2019-05-06T05:04:44.925Z,27.90
2019-05-06T05:07:48.755Z,19.50
2019-05-06T05:10:56.929Z,16.57
2019-05-06T05:14:14.627Z,16.82
2019-05-06T05:17:23.359Z,21.43
2019-05-06T05:20:36.996Z,22.52
2019-05-06T05:23:32.465Z,19.95
2019-05-06T05:26:37.075Z,15.53
2019-05-06T05:29:42.408Z,20.40
2019-05-06T05:32:45.865Z,16.95
2019-05-06T05:35:49.544Z,16.12
2019-05-06T05:38:53.360Z,17.40
2019-05-06T05:41:58.798Z,13.53
2019-05-06T05:45:02.799Z,18.92
2019-05-06T05:48:08.107Z,17.87
2019-05-06T05:51:12.739Z,15.05
2019-05-06T05:54:16.442Z,19.32
2019-05-06T05:57:19.998Z,18.15
2019-05-06T06:00:25.238Z,18.48
2019-05-06T06:03:28.829Z,16.35
2019-05-06T06:06:33.938Z,17.37
2019-05-06T06:09:42.146Z,18.45
2019-05-06T06:12:45.678Z,16.77
2019-05-06T06:15:52.126Z,20.23
2019-05-06T06:19:00.304Z,16.50
2019-05-06T06:22:07.885Z,15.93
2019-05-06T06:25:14.233Z,16.75
2019-05-06T06:28:17.955Z,15.53
2019-05-06T06:31:35.199Z,15.40
2019-05-06T06:34:42.773Z,13.38
2019-05-06T06:37:52.350Z,20.30
2019-05-06T06:40:56.447Z,18.12
2019-05-06T06:44:02.240Z,17.90
2019-05-06T06:47:05.822Z,14.73
2019-05-06T06:50:09.510Z,14.33
2019-05-06T06:53:13.107Z,18.02
2019-05-06T06:56:18.299Z,16.62
2019-05-06T06:59:27.803Z,15.70
2019-05-06T07:02:37.155Z,13.58
2019-05-06T07:05:42.832Z,18.55
2019-05-06T07:08:57.719Z,20.60
2019-05-06T07:12:03.469Z,15.75
2019-05-06T07:15:07.447Z,18.00
2019-05-06T07:18:13.502Z,14.45
2019-05-06T07:21:24.267Z,13.72
2019-05-06T07:24:27.981Z,22.17
2019-05-06T07:31:13.234Z,15.93
2019-05-06T07:34:02.890Z,15.80
2019-05-06T07:37:08.900Z,16.37
2019-05-06T07:40:15.915Z,12.47
2019-05-06T07:43:33.918Z,10.55
2019-05-06T07:46:53.612Z,13.45
2019-05-06T07:49:57.237Z,10.58
2019-05-06T07:53:06.619Z,10.23
2019-05-06T07:56:12.121Z,11.40
2019-05-06T07:59:18.154Z,9.98
2019-05-06T08:02:23.507Z,10.45
2019-05-06T08:05:55.255Z,13.50
2019-05-06T08:08:49.786Z,11.95
2019-05-06T08:11:53.381Z,14.45
2019-05-06T08:15:04.527Z,13.68
2019-05-06T08:18:06.261Z,12.58
2019-05-06T08:21:14.371Z,11.33
2019-05-06T08:24:17.997Z,12.78
2019-05-06T08:27:22.727Z,12.98
2019-05-06T08:30:26.506Z,7.85
2019-05-06T08:33:30.045Z,11.78
2019-05-06T08:36:44.451Z,8.25
2019-05-06T08:39:48.017Z,11.05
2019-05-06T08:42:53.167Z,8.65
2019-05-06T08:45:56.868Z,7.08
2019-05-06T08:49:02.829Z,12.80
2019-05-06T08:52:07.370Z,11.38
2019-05-06T08:55:12.597Z,10.80
2019-05-06T08:58:16.284Z,12.30
2019-05-06T09:01:39.027Z,10.23
2019-05-06T09:04:42.845Z,17.75
2019-05-06T09:07:53.114Z,10.15
2019-05-06T09:10:56.683Z,13.40
2019-05-06T09:14:03.462Z,8.68
2019-05-06T09:17:09.088Z,6.37
2019-05-06T09:20:13.107Z,12.78
2019-05-06T09:23:16.646Z,9.03
2019-05-06T09:26:27.822Z,5.85
2019-05-06T09:29:48.073Z,6.05
2019-05-06T09:32:52.168Z,7.55
2019-05-06T09:35:55.855Z,6.87
2019-05-06T09:39:07.361Z,5.97
2019-05-06T09:42:12.855Z,11.18
2019-05-06T09:45:16.326Z,5.90
2019-05-06T09:48:24.182Z,9.80
2019-05-06T09:51:27.722Z,8.83
2019-05-06T09:54:36.980Z,8.05
2019-05-06T09:57:48.039Z,7.37
2019-05-06T10:00:53.280Z,8.08
2019-05-06T10:03:56.918Z,5.37
2019-05-06T10:07:02.558Z,7.60
2019-05-06T10:10:06.616Z,5.28
2019-05-06T10:13:12.673Z,6.42
2019-05-06T10:16:15.734Z,7.65
2019-05-06T10:19:19.254Z,7.97
2019-05-06T10:22:23.359Z,10.53
2019-05-06T10:25:26.996Z,7.65
2019-05-06T10:28:41.384Z,7.97
2019-05-06T10:31:46.552Z,6.75
2019-05-06T10:34:52.431Z,8.05
2019-05-06T10:38:24.347Z,8.70
2019-05-06T10:41:33.715Z,6.78
2019-05-06T10:44:42.832Z,8.55
2019-05-06T10:47:45.555Z,7.22
2019-05-06T10:50:52.090Z,7.65
2019-05-06T10:53:56.155Z,10.60
2019-05-06T10:57:02.254Z,6.37
2019-05-06T11:00:07.915Z,5.42
2019-05-06T11:03:14.987Z,6.95
2019-05-06T11:06:18.533Z,5.00
2019-05-06T11:09:22.746Z,9.90
2019-05-06T11:12:26.475Z,6.05
2019-05-06T11:15:32.898Z,7.33
2019-05-06T11:18:35.939Z,6.83
2019-05-06T11:21:42.191Z,5.55
2019-05-06T11:24:46.467Z,6.10
2019-05-06T11:27:52.478Z,5.97
2019-05-06T11:31:02.253Z,7.90
2019-05-06T11:34:22.514Z,3.80
2019-05-06T11:37:27.678Z,5.78
2019-05-06T11:40:33.074Z,6.85
2019-05-06T11:43:36.537Z,12.45
2019-05-06T11:46:40.154Z,5.10
2019-05-06T11:49:44.258Z,3.90
2019-05-06T11:52:47.894Z,7.33
2019-05-06T11:55:54.432Z,7.22
2019-05-06T11:58:58.740Z,9.13
2019-05-06T12:02:03.990Z,7.22
2019-05-06T12:05:07.690Z,3.00
2019-05-06T12:08:13.753Z,4.40
2019-05-06T12:11:16.599Z,4.40
2019-05-06T12:14:23.224Z,11.35
2019-05-06T12:17:28.300Z,4.87
2019-05-06T12:20:36.423Z,4.10
2019-05-06T12:23:53.528Z,5.22
2019-05-06T12:26:49.444Z,8.58
2019-05-06T12:29:55.930Z,5.40
2019-05-06T12:33:03.187Z,5.42
2019-05-06T12:36:12.796Z,5.72
2019-05-06T12:39:19.819Z,4.28
2019-05-06T12:42:25.161Z,5.87
2019-05-06T12:45:39.154Z,5.28
2019-05-06T12:48:52.015Z,8.58
2019-05-06T12:51:55.159Z,9.70
2019-05-06T12:55:16.390Z,4.47
2019-05-06T12:58:04.154Z,5.62
2019-05-06T13:01:09.282Z,9.83
2019-05-06T13:04:14.465Z,8.75
2019-05-06T13:07:19.825Z,6.05
2019-05-06T13:10:23.702Z,6.25
2019-05-06T13:13:27.312Z,8.23
2019-05-06T13:16:33.249Z,6.30
2019-05-06T13:19:36.257Z,7.92
2019-05-06T13:22:47.278Z,8.38
2019-05-06T13:25:52.773Z,8.05
2019-05-06T13:28:57.822Z,9.48
2019-05-06T13:32:02.088Z,6.55
2019-05-06T13:35:06.726Z,5.87
2019-05-06T13:38:10.319Z,8.15
2019-05-06T13:41:13.853Z,5.62
2019-05-06T13:44:17.759Z,6.30
2019-05-06T13:47:40.515Z,6.33
2019-05-06T13:53:53.405Z,6.28
2019-05-06T13:56:57.279Z,7.12
2019-05-06T14:00:03.087Z,6.72
2019-05-06T14:03:06.330Z,7.60
2019-05-06T14:06:12.242Z,6.03
2019-05-06T14:09:32.464Z,3.62
2019-05-06T14:12:28.958Z,6.75
2019-05-06T14:15:34.058Z,6.42
2019-05-06T14:18:37.943Z,9.18
2019-05-06T14:21:43.127Z,5.60
2019-05-06T14:24:51.181Z,4.17
2019-05-06T14:28:12.627Z,6.37
2019-05-06T14:31:18.065Z,6.50
2019-05-06T14:34:22.981Z,4.37
2019-05-06T14:37:26.773Z,6.92
2019-05-06T14:40:33.129Z,4.62
2019-05-06T14:43:36.778Z,4.53
2019-05-06T14:46:50.845Z,4.28
2019-05-06T14:49:54.400Z,6.55
2019-05-06T14:53:13.790Z,7.90
2019-05-06T14:56:22.608Z,7.37
2019-05-06T14:59:26.850Z,10.53
2019-05-06T15:02:33.685Z,5.72
2019-05-06T15:05:36.348Z,5.47
2019-05-06T15:08:42.619Z,3.70
2019-05-06T15:11:45.475Z,6.70
2019-05-06T15:14:49.063Z,7.25
2019-05-06T15:17:53.239Z,6.50
2019-05-06T15:20:57.065Z,4.65
2019-05-06T15:24:02.618Z,8.00
2019-05-06T15:27:06.153Z,7.45
2019-05-06T15:30:12.426Z,4.37
2019-05-06T15:33:17.685Z,5.97
2019-05-06T15:36:28.716Z,6.78
2019-05-06T15:39:32.774Z,7.85
2019-05-06T15:42:38.659Z,9.83
2019-05-06T15:45:44.667Z,6.67
2019-05-06T15:48:48.191Z,7.78
2019-05-06T15:51:52.463Z,8.53
2019-05-06T15:54:56.053Z,4.00
2019-05-06T15:57:59.687Z,5.92
2019-05-06T16:01:03.423Z,6.70
2019-05-06T16:04:06.928Z,10.93
2019-05-06T16:07:12.662Z,5.12
2019-05-06T16:10:16.985Z,5.60
2019-05-06T16:13:22.302Z,6.65
2019-05-06T16:16:25.804Z,6.08
2019-05-06T16:19:29.334Z,6.10
2019-05-06T16:22:33.844Z,8.10
2019-05-06T16:25:37.611Z,7.83
2019-05-06T16:28:41.763Z,10.25
2019-05-06T16:31:46.471Z,5.90
2019-05-06T16:34:52.309Z,6.25
2019-05-06T16:37:55.538Z,5.30
2019-05-06T16:41:12.749Z,7.12
2019-05-06T16:44:08.655Z,6.83
2019-05-06T16:47:13.912Z,6.50
2019-05-06T16:50:19.417Z,7.55
2019-05-06T16:53:24.507Z,6.30
2019-05-06T16:56:41.802Z,7.25
2019-05-06T16:59:46.229Z,9.55
2019-05-06T17:02:57.641Z,8.83
2019-05-06T17:06:17.627Z,12.85
2019-05-06T17:09:27.061Z,4.92
2019-05-06T17:12:26.764Z,7.12
2019-05-06T17:15:32.176Z,4.70
2019-05-06T17:18:35.725Z,4.53
2019-05-06T17:21:39.457Z,6.03
2019-05-06T17:24:43.028Z,10.80
2019-05-06T17:27:48.170Z,3.20
2019-05-06T17:31:08.633Z,6.05
2019-05-06T17:34:22.324Z,6.83
2019-05-06T17:37:45.969Z,6.20
2019-05-06T17:40:49.622Z,4.45
2019-05-06T17:43:53.240Z,7.65
2019-05-06T17:47:02.638Z,4.53
2019-05-06T17:50:09.397Z,4.85
2019-05-06T17:53:13.033Z,6.92
2019-05-06T17:56:16.574Z,5.80
2019-05-06T17:59:20.284Z,5.12
2019-05-06T18:02:25.529Z,6.62
2019-05-06T18:05:29.113Z,9.00
2019-05-06T18:08:33.493Z,7.10
2019-05-06T18:11:37.299Z,6.50
2019-05-06T18:14:43.558Z,8.65
2019-05-06T18:17:47.907Z,4.85
2019-05-06T18:20:52.896Z,7.37
2019-05-06T18:23:56.734Z,4.72
2019-05-06T18:27:02.467Z,6.45
2019-05-06T18:30:23.247Z,7.95
2019-05-06T18:33:22.455Z,11.43
2019-05-06T18:36:28.451Z,7.65
2019-05-06T18:39:34.039Z,8.65
2019-05-06T18:42:54.722Z,5.87
2019-05-06T18:46:13.540Z,6.78
2019-05-06T18:49:38.131Z,7.03
2019-05-06T18:52:54.499Z,7.10
2019-05-06T18:56:03.248Z,6.85
2019-05-06T18:59:07.048Z,6.85
2019-05-06T19:02:14.248Z,11.33
2019-05-06T19:05:39.476Z,10.05
2019-05-06T19:08:45.915Z,5.70
2019-05-06T19:11:51.941Z,8.05
2019-05-06T19:14:57.119Z,8.95
2019-05-06T19:18:03.460Z,8.43
2019-05-06T19:21:07.061Z,9.03
2019-05-06T19:24:12.283Z,7.00
2019-05-06T19:27:16.033Z,9.75
2019-05-06T19:30:22.339Z,7.80
2019-05-06T19:33:34.945Z,8.28
2019-05-06T19:40:13.525Z,10.50
2019-05-06T19:43:52.535Z,8.33
2019-05-06T19:46:57.550Z,7.90
2019-05-06T19:50:02.818Z,11.55
2019-05-06T19:53:06.972Z,12.00
2019-05-06T19:56:12.402Z,11.93
2019-05-06T19:59:17.456Z,15.10
2019-05-06T20:02:25.154Z,11.93
2019-05-06T20:05:29.482Z,11.18
2019-05-06T20:08:34.709Z,8.40
2019-05-06T20:11:40.003Z,9.13
2019-05-06T20:14:54.469Z,12.25
2019-05-06T20:17:58.020Z,14.13
2019-05-06T20:21:03.231Z,13.83
2019-05-06T20:24:07.758Z,12.13
2019-05-06T20:27:13.309Z,11.20
2019-05-06T20:30:17.014Z,8.55
2019-05-06T20:33:25.811Z,15.05
2019-05-06T20:36:29.281Z,16.60
2019-05-06T20:39:33.099Z,17.10
2019-05-06T20:42:36.872Z,15.28
2019-05-06T20:45:42.861Z,11.95
2019-05-06T20:48:46.757Z,14.63
2019-05-06T20:51:52.189Z,13.40
2019-05-06T20:54:56.483Z,15.40
2019-05-06T20:58:02.529Z,11.22
2019-05-06T21:01:05.409Z,17.07
2019-05-06T21:04:08.963Z,12.05
2019-05-06T21:07:12.626Z,10.55
2019-05-06T21:10:16.352Z,9.25
2019-05-06T21:13:29.502Z,10.50
2019-05-06T21:16:25.468Z,9.18
2019-05-06T21:19:29.605Z,13.50
2019-05-06T21:22:33.219Z,12.78
2019-05-06T21:25:36.919Z,14.73
2019-05-06T21:28:42.525Z,16.70
2019-05-06T21:31:45.921Z,14.38
2019-05-06T21:34:56.334Z,12.85
2019-05-06T21:38:02.358Z,13.13
2019-05-06T21:41:09.838Z,13.53
2019-05-06T21:44:16.037Z,13.25
2019-05-06T21:47:19.642Z,10.90
2019-05-06T21:50:23.248Z,13.78
2019-05-06T21:53:26.806Z,10.72
2019-05-06T21:56:32.007Z,9.70
2019-05-06T21:59:35.700Z,11.35
2019-05-06T22:02:42.153Z,10.90
2019-05-06T22:05:45.160Z,12.18
2019-05-06T22:08:51.892Z,13.50
2019-05-06T22:11:55.680Z,12.03
2019-05-06T22:14:59.219Z,11.43
2019-05-06T22:18:02.835Z,10.55
2019-05-06T22:21:22.338Z,12.98
2019-05-06T22:24:27.348Z,11.70
2019-05-06T22:27:31.004Z,12.43
2019-05-06T22:30:36.220Z,15.20
2019-05-06T22:33:42.760Z,9.30
2019-05-06T22:36:46.389Z,12.98
2019-05-06T22:39:52.571Z,15.20
2019-05-06T22:42:55.819Z,12.23
2019-05-06T22:45:59.357Z,13.03
2019-05-06T22:49:02.918Z,11.55
2019-05-06T22:52:07.255Z,13.72
2019-05-06T22:55:13.938Z,10.78
2019-05-06T22:58:17.583Z,16.90
2019-05-06T23:01:39.178Z,14.23
2019-05-06T23:04:44.394Z,14.33
2019-05-06T23:07:47.946Z,15.53
2019-05-06T23:10:52.853Z,13.62
2019-05-06T23:13:56.455Z,14.15
2019-05-06T23:17:00.053Z,13.08
2019-05-06T23:20:04.917Z,12.27
2019-05-06T23:23:08.551Z,15.03
2019-05-06T23:26:19.359Z,13.80
2019-05-06T23:29:22.949Z,18.30
2019-05-06T23:32:26.531Z,17.83
2019-05-06T23:35:30.062Z,16.13
2019-05-06T23:39:10.238Z,18.73
2019-05-06T23:42:52.587Z,15.20
2019-05-06T23:46:32.944Z,15.55
2019-05-06T23:50:12.650Z,12.90
2019-05-06T23:53:52.576Z,15.00
2019-05-06T23:56:54.980Z,15.23
2019-05-06T23:59:58.625Z,12.43
